createdAt,value
2019-05-14T00:01:03.144Z,8.20
2019-05-14T00:03:32.546Z,8.10
2019-05-14T00:06:02.327Z,8.10
2019-05-14T00:08:31.680Z,8.10
2019-05-14T00:11:01.597Z,8.10
2019-05-14T00:13:32.078Z,8.00
2019-05-14T00:16:01.771Z,8.00
2019-05-14T00:18:31.453Z,8.00
2019-05-14T00:21:02.038Z,8.00
2019-05-14T00:23:32.458Z,7.90
2019-05-14T00:26:02.073Z,7.90
2019-05-14T00:28:32.462Z,7.90
2019-05-14T00:31:02.877Z,7.80
2019-05-14T00:33:32.418Z,7.80
2019-05-14T00:36:02.617Z,7.80
2019-05-14T00:38:31.783Z,7.80
2019-05-14T00:41:02.024Z,7.70
2019-05-14T00:43:32.816Z,7.70
2019-05-14T00:46:02.138Z,7.70
2019-05-14T00:48:32.031Z,7.70
2019-05-14T00:51:02.242Z,7.70
2019-05-14T00:53:32.185Z,7.70
2019-05-14T00:56:02.219Z,7.60
2019-05-14T00:58:32.113Z,7.60
2019-05-14T01:01:01.727Z,7.60
2019-05-14T01:03:32.440Z,7.50
2019-05-14T01:06:03.028Z,7.50
2019-05-14T01:08:32.348Z,7.50
2019-05-14T01:11:01.772Z,7.40
2019-05-14T01:13:31.408Z,7.40
2019-05-14T01:16:01.635Z,7.30
2019-05-14T01:18:32.231Z,7.20
2019-05-14T01:21:01.713Z,7.10
2019-05-14T01:23:32.336Z,7.20
2019-05-14T01:26:02.339Z,7.10
2019-05-14T01:28:32.828Z,7.20
2019-05-14T01:31:02.018Z,7.20
2019-05-14T01:33:31.826Z,7.20
2019-05-14T01:36:02.131Z,7.30
2019-05-14T01:38:32.659Z,7.40
2019-05-14T01:41:02.091Z,7.40
2019-05-14T01:43:31.640Z,7.50
2019-05-14T01:46:02.046Z,7.50
2019-05-14T01:48:31.545Z,7.50
2019-05-14T01:51:01.571Z,7.50
2019-05-14T01:53:31.344Z,7.40
2019-05-14T01:56:01.735Z,7.40
2019-05-14T01:58:31.268Z,7.40
2019-05-14T02:01:02.148Z,7.40
2019-05-14T02:03:32.363Z,7.40
2019-05-14T02:06:01.799Z,7.40
2019-05-14T02:08:32.384Z,7.40
2019-05-14T02:11:01.935Z,7.40
2019-05-14T02:13:32.219Z,7.50
2019-05-14T02:16:02.956Z,7.60
2019-05-14T02:18:32.327Z,7.70
2019-05-14T02:21:01.797Z,7.70
2019-05-14T02:23:31.968Z,7.70
2019-05-14T02:26:02.595Z,7.70
2019-05-14T02:28:31.981Z,7.70
2019-05-14T02:31:03.629Z,7.80
2019-05-14T02:33:32.021Z,7.80
2019-05-14T02:36:01.204Z,7.80
2019-05-14T02:38:30.395Z,7.80
2019-05-14T02:41:00.176Z,7.80
2019-05-14T02:43:30.206Z,7.70
2019-05-14T02:46:10.007Z,7.70
2019-05-14T02:48:30.251Z,7.60
2019-05-14T02:51:00.114Z,7.60
2019-05-14T02:53:30.055Z,7.60
2019-05-14T02:55:59.778Z,7.50
2019-05-14T02:58:29.798Z,7.50
2019-05-14T03:01:00.402Z,7.50
2019-05-14T03:03:30.198Z,7.40
2019-05-14T03:06:00.531Z,7.40
2019-05-14T03:08:30.669Z,7.40
2019-05-14T03:11:00.601Z,7.40
2019-05-14T03:13:30.039Z,7.40
2019-05-14T03:15:59.693Z,7.40
2019-05-14T03:18:29.772Z,7.40
2019-05-14T03:21:00.832Z,7.30
2019-05-14T03:23:30.524Z,7.30
2019-05-14T03:26:00.826Z,7.30
2019-05-14T03:28:30.729Z,7.20
2019-05-14T03:31:03.265Z,7.20
2019-05-14T03:33:33.314Z,7.20
2019-05-14T03:36:09.537Z,7.10
2019-05-14T03:38:32.730Z,7.10
2019-05-14T03:41:01.886Z,7.00
2019-05-14T03:43:31.086Z,7.00
2019-05-14T03:46:00.236Z,7.00
2019-05-14T03:48:29.924Z,7.00
2019-05-14T03:51:00.331Z,7.00
2019-05-14T03:53:30.042Z,7.00
2019-05-14T03:56:00.338Z,7.00
2019-05-14T03:58:30.587Z,7.00
2019-05-14T04:01:02.614Z,7.00
2019-05-14T04:03:32.535Z,7.00
2019-05-14T04:06:01.891Z,7.00
2019-05-14T04:08:31.947Z,7.00
2019-05-14T04:11:01.255Z,6.90
2019-05-14T04:13:30.713Z,7.00
2019-05-14T04:16:01.452Z,6.90
2019-05-14T04:18:30.669Z,6.90
2019-05-14T04:20:59.948Z,6.90
2019-05-14T04:23:29.778Z,7.00
2019-05-14T04:26:00.497Z,7.00
2019-05-14T04:28:30.076Z,7.10
2019-05-14T04:30:59.817Z,7.20
2019-05-14T04:33:30.597Z,7.20
2019-05-14T04:36:00.483Z,7.20
2019-05-14T04:38:30.223Z,7.20
2019-05-14T04:41:00.208Z,7.30
2019-05-14T04:43:29.762Z,7.30
2019-05-14T04:45:59.465Z,7.40
2019-05-14T04:48:36.337Z,7.30
2019-05-14T04:51:00.613Z,7.30
2019-05-14T04:53:31.068Z,7.40
2019-05-14T04:56:00.499Z,7.50
2019-05-14T04:58:30.157Z,7.50
2019-05-14T05:01:00.483Z,7.50
2019-05-14T05:03:31.356Z,7.60
2019-05-14T05:06:02.147Z,7.60
2019-05-14T05:08:31.438Z,7.70
2019-05-14T05:11:01.719Z,7.70
2019-05-14T05:13:30.935Z,7.80
2019-05-14T05:16:00.084Z,7.80
2019-05-14T05:18:29.836Z,7.90
2019-05-14T05:20:59.090Z,8.00
2019-05-14T05:23:28.464Z,8.10
2019-05-14T05:25:58.524Z,8.20
2019-05-14T05:28:28.453Z,8.20
2019-05-14T05:30:58.556Z,8.30
2019-05-14T05:33:29.551Z,8.40
2019-05-14T05:35:59.530Z,8.50
2019-05-14T05:38:29.466Z,8.60
2019-05-14T05:41:00.328Z,8.70
2019-05-14T05:43:29.729Z,8.80
2019-05-14T05:45:59.385Z,8.90
2019-05-14T05:48:28.805Z,9.20
2019-05-14T05:50:59.173Z,9.40
2019-05-14T05:53:28.916Z,9.60
2019-05-14T05:55:59.373Z,9.90
2019-05-14T05:58:29.882Z,10.20
2019-05-14T06:00:59.497Z,10.60
2019-05-14T06:03:30.111Z,11.00
2019-05-14T06:05:59.838Z,11.40
2019-05-14T06:08:29.078Z,11.70
2019-05-14T06:10:59.150Z,12.20
2019-05-14T06:13:28.951Z,12.60
2019-05-14T06:15:59.099Z,13.30
2019-05-14T06:18:28.784Z,13.80
2019-05-14T06:20:58.614Z,14.30
2019-05-14T06:23:28.600Z,14.50
2019-05-14T06:25:59.677Z,14.80
2019-05-14T06:28:33.300Z,15.10
2019-05-14T06:31:00.382Z,15.30
2019-05-14T06:33:29.648Z,15.20
2019-05-14T06:35:59.332Z,15.10
2019-05-14T06:38:29.424Z,15.30
2019-05-14T06:40:59.449Z,15.70
2019-05-14T06:43:29.046Z,16.10
2019-05-14T06:45:58.687Z,16.50
2019-05-14T06:48:34.151Z,16.60
2019-05-14T06:50:58.941Z,16.70
2019-05-14T06:53:29.073Z,17.20
2019-05-14T06:55:58.866Z,17.30
2019-05-14T06:58:29.753Z,17.70
2019-05-14T07:00:59.357Z,17.60
2019-05-14T07:03:28.613Z,17.60
2019-05-14T07:05:59.588Z,17.70
2019-05-14T07:08:28.942Z,18.20
2019-05-14T07:10:59.300Z,18.30
2019-05-14T07:13:29.728Z,18.80
2019-05-14T07:16:00.249Z,19.10
2019-05-14T07:18:45.166Z,19.40
2019-05-14T07:21:00.683Z,19.10
2019-05-14T07:23:29.871Z,19.00
2019-05-14T07:25:59.081Z,19.30
2019-05-14T07:28:28.848Z,19.00
2019-05-14T07:30:59.362Z,19.80
2019-05-14T07:33:29.226Z,19.80
2019-05-14T07:35:59.435Z,19.80
2019-05-14T07:38:28.762Z,20.30
2019-05-14T07:40:58.615Z,20.20
2019-05-14T07:43:28.846Z,20.40
2019-05-14T07:45:58.372Z,20.20
2019-05-14T07:48:28.764Z,20.50
2019-05-14T07:51:00.042Z,21.00
2019-05-14T07:53:38.551Z,21.10
2019-05-14T07:56:00.018Z,21.50
2019-05-14T07:58:29.235Z,21.50
2019-05-14T08:00:58.756Z,21.40
2019-05-14T08:03:29.078Z,21.20
2019-05-14T08:05:58.901Z,20.70
2019-05-14T08:08:29.266Z,21.60
2019-05-14T08:10:59.321Z,22.40
2019-05-14T08:13:28.643Z,22.40
2019-05-14T08:15:58.420Z,21.10
2019-05-14T08:18:29.001Z,20.90
2019-05-14T08:20:59.194Z,21.50
2019-05-14T08:23:28.867Z,22.70
2019-05-14T08:25:58.684Z,23.20
2019-05-14T08:28:29.002Z,23.20
2019-05-14T08:30:58.644Z,23.40
2019-05-14T08:33:29.106Z,23.70
2019-05-14T08:35:58.440Z,24.30
2019-05-14T08:38:28.496Z,24.40
2019-05-14T08:40:58.977Z,23.30
2019-05-14T08:43:29.237Z,22.00
2019-05-14T08:45:58.921Z,20.50
2019-05-14T08:48:29.702Z,18.70
2019-05-14T08:50:59.149Z,17.60
2019-05-14T08:53:28.997Z,16.90
2019-05-14T08:55:58.873Z,16.20
2019-05-14T08:58:30.061Z,15.50
2019-05-14T09:00:59.199Z,14.90
2019-05-14T09:03:28.928Z,14.30
2019-05-14T09:06:00.730Z,14.00
2019-05-14T09:08:29.177Z,13.50
2019-05-14T09:10:59.016Z,13.00
2019-05-14T09:13:29.568Z,12.60
2019-05-14T09:15:58.798Z,12.50
2019-05-14T09:18:29.078Z,12.70
2019-05-14T09:20:58.481Z,12.90
2019-05-14T09:23:28.640Z,13.20
2019-05-14T09:25:58.781Z,14.00
2019-05-14T09:28:29.393Z,15.90
2019-05-14T09:30:59.825Z,17.80
2019-05-14T09:33:30.353Z,19.20
2019-05-14T09:36:13.698Z,20.70
2019-05-14T09:38:30.394Z,22.10
2019-05-14T09:41:10.582Z,21.20
2019-05-14T09:43:30.527Z,19.70
2019-05-14T09:45:59.724Z,18.00
2019-05-14T09:48:30.118Z,17.40
2019-05-14T09:50:59.284Z,18.20
2019-05-14T09:53:28.981Z,20.20
2019-05-14T09:55:58.434Z,21.40
2019-05-14T09:58:28.330Z,21.30
2019-05-14T10:00:59.105Z,22.20
2019-05-14T10:03:28.664Z,24.10
2019-05-14T10:05:58.983Z,25.20
2019-05-14T10:08:28.675Z,24.70
2019-05-14T10:11:00.308Z,24.10
2019-05-14T10:13:28.798Z,23.50
2019-05-14T10:15:58.848Z,23.70
2019-05-14T10:18:28.553Z,24.60
2019-05-14T10:20:59.070Z,25.10
2019-05-14T10:23:28.641Z,25.60
2019-05-14T10:25:58.371Z,25.90
2019-05-14T10:28:28.885Z,25.40
2019-05-14T10:30:59.906Z,25.70
2019-05-14T10:33:29.140Z,24.30
2019-05-14T10:35:58.897Z,24.30
2019-05-14T10:38:29.499Z,24.60
2019-05-14T10:40:58.916Z,25.30
2019-05-14T10:43:28.853Z,25.10
2019-05-14T10:45:58.583Z,26.10
2019-05-14T10:48:29.147Z,25.50
2019-05-14T10:51:03.246Z,24.20
2019-05-14T10:53:29.535Z,23.80
2019-05-14T10:55:58.766Z,25.20
2019-05-14T10:58:29.020Z,26.40
2019-05-14T11:00:59.086Z,25.70
2019-05-14T11:03:30.084Z,23.70
2019-05-14T11:05:59.205Z,23.30
2019-05-14T11:08:29.690Z,22.30
2019-05-14T11:11:03.740Z,22.70
2019-05-14T11:13:29.957Z,22.70
2019-05-14T11:15:59.802Z,22.20
2019-05-14T11:18:29.467Z,20.40
2019-05-14T11:21:18.147Z,18.50
2019-05-14T11:23:30.075Z,17.10
2019-05-14T11:25:59.493Z,16.00
2019-05-14T11:28:28.919Z,15.80
2019-05-14T11:30:58.186Z,17.10
2019-05-14T11:33:29.498Z,18.00
2019-05-14T11:35:58.572Z,17.70
2019-05-14T11:38:36.569Z,17.40
2019-05-14T11:40:58.985Z,17.00
2019-05-14T11:43:28.749Z,17.20
2019-05-14T11:45:59.385Z,19.00
2019-05-14T11:48:28.826Z,21.00
2019-05-14T11:50:59.284Z,20.20
2019-05-14T11:53:29.037Z,19.40
2019-05-14T11:55:58.741Z,18.60
2019-05-14T11:58:29.450Z,19.70
2019-05-14T12:00:58.904Z,22.20
2019-05-14T12:03:28.687Z,24.40
2019-05-14T12:05:58.619Z,25.60
2019-05-14T12:08:28.785Z,25.40
2019-05-14T12:10:59.417Z,25.60
2019-05-14T12:13:32.150Z,26.20
2019-05-14T12:15:59.483Z,26.50
2019-05-14T12:18:29.178Z,26.60
2019-05-14T12:20:59.376Z,27.20
2019-05-14T12:23:29.980Z,27.00
2019-05-14T12:25:59.343Z,26.70
2019-05-14T12:28:29.218Z,23.90
2019-05-14T12:30:58.641Z,21.90
2019-05-14T12:33:30.797Z,20.70
2019-05-14T12:36:00.492Z,20.50
2019-05-14T12:38:29.760Z,19.50
2019-05-14T12:40:59.305Z,18.40
2019-05-14T12:43:28.637Z,17.10
2019-05-14T12:45:59.312Z,15.90
2019-05-14T12:48:29.764Z,15.20
2019-05-14T12:50:59.548Z,14.80
2019-05-14T12:53:28.980Z,14.60
2019-05-14T12:55:59.259Z,14.90
2019-05-14T12:58:28.673Z,17.50
2019-05-14T13:00:59.532Z,20.70
2019-05-14T13:03:28.842Z,23.00
2019-05-14T13:05:58.666Z,24.60
2019-05-14T13:08:28.138Z,25.70
2019-05-14T13:10:58.576Z,26.60
2019-05-14T13:13:29.082Z,27.10
2019-05-14T13:15:58.551Z,27.40
2019-05-14T13:18:29.042Z,27.50
2019-05-14T13:20:58.424Z,27.50
2019-05-14T13:23:29.271Z,27.70
2019-05-14T13:25:59.771Z,26.90
2019-05-14T13:28:29.350Z,26.70
2019-05-14T13:30:59.806Z,27.30
2019-05-14T13:33:30.192Z,26.60
2019-05-14T13:35:59.577Z,26.00
2019-05-14T13:38:28.994Z,26.30
2019-05-14T13:40:59.412Z,25.80
2019-05-14T13:43:30.403Z,25.80
2019-05-14T13:46:00.101Z,26.10
2019-05-14T13:48:29.789Z,24.50
2019-05-14T13:50:59.206Z,22.60
2019-05-14T13:53:29.624Z,20.70
2019-05-14T13:55:59.075Z,18.80
2019-05-14T13:58:28.725Z,17.70
2019-05-14T14:00:59.149Z,16.70
2019-05-14T14:03:29.362Z,16.20
2019-05-14T14:05:59.535Z,15.40
2019-05-14T14:08:29.418Z,15.10
2019-05-14T14:11:02.578Z,14.90
2019-05-14T14:13:31.322Z,14.60
2019-05-14T14:16:01.634Z,14.40
2019-05-14T14:18:30.898Z,14.20
2019-05-14T14:21:00.109Z,14.20
2019-05-14T14:23:31.196Z,14.70
2019-05-14T14:26:00.273Z,15.70
2019-05-14T14:28:30.020Z,16.40
2019-05-14T14:30:59.406Z,18.30
2019-05-14T14:33:28.983Z,20.10
2019-05-14T14:35:58.609Z,21.40
2019-05-14T14:38:29.334Z,21.70
2019-05-14T14:40:58.874Z,20.20
2019-05-14T14:43:29.568Z,18.50
2019-05-14T14:46:00.055Z,17.10
2019-05-14T14:48:30.268Z,16.10
2019-05-14T14:50:59.881Z,15.40
2019-05-14T14:53:46.118Z,14.70
2019-05-14T14:56:00.525Z,14.30
2019-05-14T14:58:29.832Z,14.20
2019-05-14T15:00:59.541Z,13.70
2019-05-14T15:03:29.660Z,13.40
2019-05-14T15:05:59.026Z,13.00
2019-05-14T15:08:29.525Z,12.80
2019-05-14T15:10:59.458Z,13.30
2019-05-14T15:13:28.784Z,14.40
2019-05-14T15:16:00.850Z,16.40
2019-05-14T15:18:28.963Z,17.90
2019-05-14T15:20:58.811Z,18.80
2019-05-14T15:23:28.740Z,19.60
2019-05-14T15:25:58.959Z,18.50
2019-05-14T15:28:28.484Z,18.20
2019-05-14T15:30:59.600Z,17.60
2019-05-14T15:33:29.453Z,16.70
2019-05-14T15:35:58.894Z,16.00
2019-05-14T15:38:30.533Z,15.30
2019-05-14T15:40:59.630Z,14.60
2019-05-14T15:43:29.003Z,14.20
2019-05-14T15:45:58.946Z,14.00
2019-05-14T15:48:28.694Z,13.90
2019-05-14T15:50:59.942Z,13.80
2019-05-14T15:53:29.394Z,13.90
2019-05-14T15:55:58.630Z,13.80
2019-05-14T15:58:30.196Z,13.50
2019-05-14T16:01:01.288Z,13.10
2019-05-14T16:03:30.701Z,12.70
2019-05-14T16:06:00.014Z,12.40
2019-05-14T16:08:30.273Z,12.30
2019-05-14T16:11:00.568Z,12.00
2019-05-14T16:13:31.425Z,11.90
2019-05-14T16:16:00.576Z,11.80
2019-05-14T16:18:30.732Z,11.70
2019-05-14T16:20:59.964Z,11.70
2019-05-14T16:23:29.142Z,11.70
2019-05-14T16:25:59.031Z,11.80
2019-05-14T16:28:28.873Z,11.70
2019-05-14T16:30:59.163Z,11.80
2019-05-14T16:33:29.361Z,11.80
2019-05-14T16:36:00.107Z,12.00
2019-05-14T16:38:29.271Z,12.00
2019-05-14T16:40:59.660Z,12.30
2019-05-14T16:43:32.099Z,12.70
2019-05-14T16:46:00.546Z,12.70
2019-05-14T16:48:29.780Z,12.70
2019-05-14T16:50:59.009Z,12.80
2019-05-14T16:53:28.758Z,12.80
2019-05-14T16:55:58.082Z,12.80
2019-05-14T16:58:29.218Z,12.60
2019-05-14T17:00:59.311Z,12.40
2019-05-14T17:03:29.777Z,12.30
2019-05-14T17:06:00.377Z,12.10
2019-05-14T17:08:29.894Z,11.80
2019-05-14T17:10:59.162Z,11.70
2019-05-14T17:13:28.647Z,11.60
2019-05-14T17:15:58.877Z,11.50
2019-05-14T17:18:28.699Z,11.30
2019-05-14T17:20:59.454Z,11.10
2019-05-14T17:23:29.846Z,10.90
2019-05-14T17:25:58.990Z,10.90
2019-05-14T17:28:28.632Z,10.90
2019-05-14T17:30:58.278Z,10.90
2019-05-14T17:33:29.143Z,11.00
2019-05-14T17:35:58.706Z,11.00
2019-05-14T17:38:29.215Z,11.00
2019-05-14T17:40:59.858Z,11.10
2019-05-14T17:43:30.364Z,11.20
2019-05-14T17:45:59.547Z,11.20
2019-05-14T17:48:28.767Z,11.00
2019-05-14T17:50:59.056Z,10.90
2019-05-14T17:53:29.521Z,10.90
2019-05-14T17:55:59.342Z,10.90
2019-05-14T17:58:29.966Z,10.70
2019-05-14T18:01:00.193Z,10.60
2019-05-14T18:03:29.508Z,10.50
2019-05-14T18:05:58.730Z,10.30
2019-05-14T18:08:30.023Z,10.20
2019-05-14T18:11:01.558Z,10.10
2019-05-14T18:13:29.672Z,10.10
2019-05-14T18:15:58.831Z,10.10
2019-05-14T18:18:29.123Z,10.00
2019-05-14T18:20:58.508Z,10.00
2019-05-14T18:23:28.977Z,9.90
2019-05-14T18:26:04.978Z,9.90
2019-05-14T18:28:29.493Z,9.80
2019-05-14T18:30:58.967Z,9.80
2019-05-14T18:33:31.149Z,9.70
2019-05-14T18:35:59.205Z,9.60
2019-05-14T18:38:29.055Z,9.60
2019-05-14T18:40:58.749Z,9.50
2019-05-14T18:43:28.913Z,9.50
2019-05-14T18:45:58.715Z,9.50
2019-05-14T18:48:29.059Z,9.50
2019-05-14T18:50:59.234Z,9.50
2019-05-14T18:53:28.786Z,9.50
2019-05-14T18:55:59.676Z,9.40
2019-05-14T18:58:29.443Z,9.40
2019-05-14T19:00:58.765Z,9.30
2019-05-14T19:03:28.668Z,9.30
2019-05-14T19:05:58.700Z,9.20
2019-05-14T19:08:28.890Z,9.10
2019-05-14T19:10:59.421Z,9.10
2019-05-14T19:13:28.873Z,8.90
2019-05-14T19:15:59.231Z,8.80
2019-05-14T19:18:28.868Z,8.80
2019-05-14T19:20:59.272Z,8.80
2019-05-14T19:23:29.040Z,8.80
2019-05-14T19:25:59.109Z,8.80
2019-05-14T19:28:28.703Z,8.80
2019-05-14T19:30:59.588Z,8.90
2019-05-14T19:33:30.072Z,8.80
2019-05-14T19:35:59.220Z,8.80
2019-05-14T19:38:28.388Z,8.80
2019-05-14T19:40:57.546Z,8.70
2019-05-14T19:43:28.982Z,8.60
2019-05-14T19:45:59.001Z,8.50
2019-05-14T19:48:32.711Z,8.50
2019-05-14T19:50:59.156Z,8.50
2019-05-14T19:53:28.507Z,8.50
2019-05-14T19:55:59.302Z,8.40
2019-05-14T19:58:29.294Z,8.50
2019-05-14T20:00:58.741Z,8.50
2019-05-14T20:03:29.156Z,8.40
2019-05-14T20:05:58.430Z,8.40
2019-05-14T20:08:29.575Z,8.30
2019-05-14T20:10:59.243Z,8.30
2019-05-14T20:13:28.822Z,8.20
2019-05-14T20:15:59.023Z,8.10
2019-05-14T20:18:29.036Z,8.00
2019-05-14T20:20:59.173Z,7.90
2019-05-14T20:23:29.117Z,7.80
2019-05-14T20:25:58.767Z,7.80
2019-05-14T20:28:27.957Z,7.70
2019-05-14T20:30:58.622Z,7.60
2019-05-14T20:33:28.089Z,7.60
2019-05-14T20:35:58.984Z,7.60
2019-05-14T20:38:29.505Z,7.70
2019-05-14T20:40:58.817Z,7.70
2019-05-14T20:43:29.062Z,7.70
2019-05-14T20:45:59.468Z,7.80
2019-05-14T20:48:29.690Z,7.80
2019-05-14T20:50:58.897Z,7.80
2019-05-14T20:53:29.138Z,7.80
2019-05-14T20:55:58.904Z,7.80
2019-05-14T20:58:28.302Z,7.80
2019-05-14T21:00:57.446Z,7.70
2019-05-14T21:03:28.915Z,7.70
2019-05-14T21:05:58.314Z,7.70
2019-05-14T21:08:28.278Z,7.70
2019-05-14T21:10:58.739Z,7.70
2019-05-14T21:13:28.149Z,7.70
2019-05-14T21:15:58.396Z,7.70
2019-05-14T21:18:35.156Z,7.70
2019-05-14T21:20:58.558Z,7.60
2019-05-14T21:23:29.870Z,7.70
2019-05-14T21:25:58.544Z,7.70
2019-05-14T21:28:29.849Z,7.60
2019-05-14T21:30:59.222Z,7.70
2019-05-14T21:33:30.385Z,7.70
2019-05-14T21:35:59.524Z,7.80
2019-05-14T21:38:28.749Z,7.80
2019-05-14T21:40:58.335Z,7.80
2019-05-14T21:43:29.101Z,7.60
2019-05-14T21:45:58.716Z,7.50
2019-05-14T21:48:28.893Z,7.40
2019-05-14T21:51:00.603Z,7.40
2019-05-14T21:53:35.243Z,7.50
2019-05-14T21:56:06.313Z,7.50
2019-05-14T21:58:35.555Z,7.40
2019-05-14T22:01:04.711Z,7.40
2019-05-14T22:03:33.947Z,7.40
2019-05-14T22:06:03.108Z,7.40
2019-05-14T22:08:32.280Z,7.40
2019-05-14T22:11:01.497Z,7.40
2019-05-14T22:13:30.693Z,7.30
2019-05-14T22:15:59.891Z,7.30
2019-05-14T22:18:29.076Z,7.40
2019-05-14T22:20:58.231Z,7.50
2019-05-14T22:23:29.186Z,7.50
2019-05-14T22:25:58.370Z,7.50
2019-05-14T22:28:28.840Z,7.50
2019-05-14T22:30:58.716Z,7.40
2019-05-14T22:33:28.475Z,7.40
2019-05-14T22:35:58.187Z,7.30
2019-05-14T22:38:29.395Z,7.40
2019-05-14T22:40:59.157Z,7.40
2019-05-14T22:43:28.913Z,7.40
2019-05-14T22:45:59.115Z,7.30
2019-05-14T22:48:28.408Z,7.30
2019-05-14T22:50:59.255Z,7.30
2019-05-14T22:53:30.390Z,7.40
2019-05-14T22:55:59.377Z,7.40
2019-05-14T22:58:29.689Z,7.40
2019-05-14T23:01:13.607Z,7.40
2019-05-14T23:03:29.947Z,7.40
2019-05-14T23:05:59.097Z,7.40
2019-05-14T23:08:28.252Z,7.40
2019-05-14T23:10:58.920Z,7.40
2019-05-14T23:13:28.302Z,7.40
2019-05-14T23:15:58.879Z,7.40
2019-05-14T23:18:28.793Z,7.40
2019-05-14T23:20:58.979Z,7.40
2019-05-14T23:23:29.636Z,7.20
2019-05-14T23:25:58.990Z,7.30
2019-05-14T23:28:41.743Z,7.20
2019-05-14T23:31:00.178Z,7.30
2019-05-14T23:33:29.473Z,7.30
2019-05-14T23:35:58.774Z,7.40
2019-05-14T23:38:28.995Z,7.40
2019-05-14T23:40:58.828Z,7.40
2019-05-14T23:43:28.805Z,7.40
2019-05-14T23:45:58.437Z,7.40
2019-05-14T23:48:27.668Z,7.40
2019-05-14T23:50:58.472Z,7.40
2019-05-14T23:53:29.109Z,7.40
2019-05-14T23:55:58.460Z,7.30
2019-05-14T23:58:28.952Z,7.30
